createdAt,value
2022-12-16T00:01:08.441Z,-7.10
2022-12-16T00:03:36.157Z,-7.10
2022-12-16T00:06:04.696Z,-7.10
2022-12-16T00:08:35.620Z,-7.30
2022-12-16T00:11:03.045Z,-7.40
2022-12-16T00:13:31.128Z,-7.40
2022-12-16T00:15:58.615Z,-7.40
2022-12-16T00:18:26.151Z,-7.40
2022-12-16T00:20:54.860Z,-7.50
2022-12-16T00:23:22.256Z,-7.30
2022-12-16T00:25:49.707Z,-7.20
2022-12-16T00:28:19.047Z,-7.40
2022-12-16T00:30:48.673Z,-7.40
2022-12-16T00:33:15.646Z,-7.50
2022-12-16T00:35:45.939Z,-7.30
2022-12-16T00:38:13.334Z,-7.30
2022-12-16T00:40:40.615Z,-7.20
2022-12-16T00:43:07.651Z,-7.10
2022-12-16T00:45:35.250Z,-7.10
2022-12-16T00:48:02.372Z,-7.30
2022-12-16T00:50:29.471Z,-7.40
2022-12-16T00:52:56.478Z,-7.60
2022-12-16T00:55:23.580Z,-7.70
2022-12-16T00:57:50.566Z,-7.70
2022-12-16T01:00:18.939Z,-7.90
2022-12-16T01:02:47.774Z,-7.90
2022-12-16T01:05:16.284Z,-7.90
2022-12-16T01:07:43.467Z,-7.90
2022-12-16T01:10:11.357Z,-7.90
2022-12-16T01:12:38.242Z,-7.90
2022-12-16T01:15:06.452Z,-7.90
2022-12-16T01:17:33.430Z,-7.90
2022-12-16T01:20:01.364Z,-7.90
2022-12-16T01:22:30.244Z,-7.80
2022-12-16T01:24:57.221Z,-7.90
2022-12-16T01:27:24.312Z,-8.00
2022-12-16T01:29:51.439Z,-7.90
2022-12-16T01:32:19.995Z,-7.90
2022-12-16T01:34:54.923Z,-7.70
2022-12-16T01:37:23.946Z,-7.30
2022-12-16T01:39:51.214Z,-7.00
2022-12-16T01:42:22.819Z,-6.80
2022-12-16T01:44:52.105Z,-6.70
2022-12-16T01:47:30.492Z,-6.80
2022-12-16T01:50:06.501Z,-7.00
2022-12-16T01:52:37.181Z,-7.20
2022-12-16T01:55:08.049Z,-7.20
2022-12-16T01:57:44.878Z,-7.40
2022-12-16T02:00:13.210Z,-7.50
2022-12-16T02:02:41.069Z,-7.60
2022-12-16T02:05:23.414Z,-7.60
2022-12-16T02:08:08.913Z,-7.50
2022-12-16T02:10:42.145Z,-7.40
2022-12-16T02:13:18.311Z,-7.50
2022-12-16T02:15:52.316Z,-7.60
2022-12-16T02:18:19.388Z,-7.70
2022-12-16T02:20:58.437Z,-7.90
2022-12-16T02:23:28.594Z,-7.90
2022-12-16T02:26:14.079Z,-7.90
2022-12-16T02:28:41.128Z,-8.10
2022-12-16T02:31:31.081Z,-8.20
2022-12-16T02:33:58.456Z,-8.20
2022-12-16T02:36:30.690Z,-8.30
2022-12-16T02:39:05.116Z,-8.30
2022-12-16T02:41:49.960Z,-8.40
2022-12-16T02:44:17.754Z,-8.40
2022-12-16T02:46:53.113Z,-8.50
2022-12-16T02:49:22.466Z,-8.50
2022-12-16T02:51:50.297Z,-8.60
2022-12-16T02:54:17.922Z,-8.60
2022-12-16T02:56:55.108Z,-8.60
2022-12-16T02:59:32.041Z,-8.40
2022-12-16T03:02:06.471Z,-8.40
2022-12-16T03:04:36.733Z,-8.40
2022-12-16T03:07:04.688Z,-8.40
2022-12-16T03:09:33.963Z,-8.30
2022-12-16T03:12:03.376Z,-8.30
2022-12-16T03:14:32.654Z,-8.20
2022-12-16T03:17:00.239Z,-8.30
2022-12-16T03:19:28.246Z,-8.20
2022-12-16T03:21:57.453Z,-8.00
2022-12-16T03:24:24.704Z,-8.00
2022-12-16T03:27:10.439Z,-7.80
2022-12-16T03:29:37.373Z,-7.80
2022-12-16T03:32:07.531Z,-7.90
2022-12-16T03:34:40.510Z,-7.70
2022-12-16T03:37:11.967Z,-7.60
2022-12-16T03:39:42.130Z,-7.60
2022-12-16T03:42:10.243Z,-7.60
2022-12-16T03:44:37.465Z,-7.70
2022-12-16T03:47:05.345Z,-7.70
2022-12-16T03:49:32.434Z,-7.40
2022-12-16T03:51:59.488Z,-7.50
2022-12-16T03:54:26.596Z,-7.70
2022-12-16T03:56:53.902Z,-7.60
2022-12-16T03:59:20.860Z,-7.60
2022-12-16T04:01:48.097Z,-7.80
2022-12-16T04:04:15.199Z,-8.00
2022-12-16T04:06:42.410Z,-8.10
2022-12-16T04:09:09.627Z,-8.20
2022-12-16T04:11:54.928Z,-8.20
2022-12-16T04:14:42.261Z,-8.40
2022-12-16T04:17:30.572Z,-8.40
2022-12-16T04:20:16.074Z,-8.30
2022-12-16T04:23:02.576Z,-8.20
2022-12-16T04:25:36.048Z,-8.10
2022-12-16T04:28:03.350Z,-8.00
2022-12-16T04:30:35.004Z,-8.00
2022-12-16T04:33:23.977Z,-7.80
2022-12-16T04:36:09.592Z,-7.80
2022-12-16T04:39:02.916Z,-7.80
2022-12-16T04:41:48.485Z,-7.90
2022-12-16T04:44:34.562Z,-8.00
2022-12-16T04:47:20.529Z,-8.10
2022-12-16T04:50:06.333Z,-8.20
2022-12-16T04:52:51.826Z,-8.20
2022-12-16T04:55:37.335Z,-8.20
2022-12-16T04:58:22.988Z,-8.10
2022-12-16T05:01:08.573Z,-8.10
2022-12-16T05:03:54.924Z,-8.10
2022-12-16T05:06:40.615Z,-8.00
2022-12-16T05:09:26.875Z,-7.90
2022-12-16T05:12:12.417Z,-7.80
2022-12-16T05:14:58.179Z,-7.80
2022-12-16T05:17:43.864Z,-7.80
2022-12-16T05:20:29.809Z,-7.90
2022-12-16T05:23:15.621Z,-8.10
2022-12-16T05:26:01.344Z,-8.10
2022-12-16T05:28:47.222Z,-8.20
2022-12-16T05:31:33.226Z,-8.10
2022-12-16T05:34:18.895Z,-8.00
2022-12-16T05:37:04.505Z,-7.70
2022-12-16T05:39:50.399Z,-7.50
2022-12-16T05:42:35.852Z,-7.50
2022-12-16T05:45:21.603Z,-7.50
2022-12-16T05:48:07.929Z,-7.70
2022-12-16T05:50:53.588Z,-7.90
2022-12-16T05:53:41.591Z,-7.90
2022-12-16T05:56:27.452Z,-8.10
2022-12-16T05:59:12.670Z,-8.30
2022-12-16T06:01:58.432Z,-8.40
2022-12-16T06:08:12.331Z,-7.80
2022-12-16T06:10:58.016Z,-7.50
2022-12-16T06:13:43.524Z,-7.60
2022-12-16T06:16:39.812Z,-7.90
2022-12-16T06:19:25.798Z,-8.10
2022-12-16T06:22:11.215Z,-8.30
2022-12-16T06:24:56.903Z,-8.40
2022-12-16T06:27:42.325Z,-8.50
2022-12-16T06:30:30.042Z,-8.60
2022-12-16T06:33:15.584Z,-8.70
2022-12-16T06:36:01.312Z,-8.80
2022-12-16T06:38:47.131Z,-8.80
2022-12-16T06:41:32.564Z,-8.80
2022-12-16T06:44:18.211Z,-8.90
2022-12-16T06:47:03.848Z,-8.80
2022-12-16T06:49:49.487Z,-8.70
2022-12-16T06:52:35.067Z,-8.70
2022-12-16T06:55:26.542Z,-8.70
2022-12-16T06:58:16.212Z,-8.70
2022-12-16T07:01:02.962Z,-8.60
2022-12-16T07:03:48.939Z,-8.60
2022-12-16T07:06:34.701Z,-8.60
2022-12-16T07:09:20.349Z,-8.60
2022-12-16T07:12:06.016Z,-8.50
2022-12-16T07:14:51.745Z,-8.40
2022-12-16T07:17:37.360Z,-8.60
2022-12-16T07:20:23.081Z,-8.60
2022-12-16T07:23:15.979Z,-8.80
2022-12-16T07:26:04.594Z,-8.80
2022-12-16T07:28:50.241Z,-8.80
2022-12-16T07:31:35.649Z,-8.90
2022-12-16T07:34:21.333Z,-8.80
2022-12-16T07:37:06.949Z,-8.90
2022-12-16T07:39:55.163Z,-8.90
2022-12-16T07:42:42.051Z,-8.90
2022-12-16T07:45:28.087Z,-8.80
2022-12-16T07:48:13.760Z,-8.70
2022-12-16T07:50:59.414Z,-8.60
2022-12-16T07:53:45.295Z,-8.60
2022-12-16T07:56:31.362Z,-8.60
2022-12-16T07:59:17.045Z,-8.50
2022-12-16T08:02:02.833Z,-8.50
2022-12-16T08:04:48.685Z,-8.40
2022-12-16T08:07:33.990Z,-8.40
2022-12-16T08:10:19.870Z,-8.40
2022-12-16T08:13:06.277Z,-8.30
2022-12-16T08:15:51.978Z,-8.30
2022-12-16T08:18:38.516Z,-8.20
2022-12-16T08:21:23.745Z,-8.10
2022-12-16T08:24:26.197Z,-8.10
2022-12-16T08:27:11.955Z,-8.00
2022-12-16T08:29:57.455Z,-7.90
2022-12-16T08:32:43.159Z,-7.90
2022-12-16T08:35:28.749Z,-7.90
2022-12-16T08:38:17.438Z,-8.10
2022-12-16T08:41:03.639Z,-8.10
2022-12-16T08:43:52.234Z,-7.90
2022-12-16T08:46:39.187Z,-7.80
2022-12-16T08:49:24.909Z,-7.70
2022-12-16T08:52:10.555Z,-7.50
2022-12-16T08:55:16.096Z,-7.50
2022-12-16T08:58:01.528Z,-7.50
2022-12-16T09:00:47.028Z,-7.50
2022-12-16T09:03:33.185Z,-7.60
2022-12-16T09:06:18.929Z,-7.60
2022-12-16T09:09:04.475Z,-7.70
2022-12-16T09:11:50.158Z,-7.70
2022-12-16T09:14:35.775Z,-7.80
2022-12-16T09:17:21.496Z,-7.70
2022-12-16T09:20:07.123Z,-7.80
2022-12-16T09:22:52.717Z,-7.70
2022-12-16T09:25:51.539Z,-7.60
2022-12-16T09:28:41.033Z,-7.50
2022-12-16T09:31:26.565Z,-7.40
2022-12-16T09:34:12.525Z,-7.20
2022-12-16T09:36:58.081Z,-7.10
2022-12-16T09:39:43.627Z,-7.00
2022-12-16T09:42:35.565Z,-6.80
2022-12-16T09:45:24.394Z,-6.70
2022-12-16T09:48:19.619Z,-6.60
2022-12-16T09:51:05.361Z,-6.50
2022-12-16T09:53:53.516Z,-6.30
2022-12-16T09:56:47.150Z,-6.20
2022-12-16T09:59:34.654Z,-6.10
2022-12-16T10:02:20.417Z,-6.00
2022-12-16T10:05:09.722Z,-5.90
2022-12-16T10:07:59.524Z,-5.80
2022-12-16T10:10:57.190Z,-5.70
2022-12-16T10:13:54.894Z,-5.70
2022-12-16T10:16:47.839Z,-5.70
2022-12-16T10:19:36.307Z,-5.60
2022-12-16T10:22:42.366Z,-5.60
2022-12-16T10:25:47.882Z,-5.50
2022-12-16T10:28:37.865Z,-5.30
2022-12-16T10:31:32.333Z,-5.20
2022-12-16T10:34:18.158Z,-5.30
2022-12-16T10:37:10.970Z,-5.30
2022-12-16T10:40:00.135Z,-5.30
2022-12-16T10:42:55.411Z,-5.30
2022-12-16T10:45:45.213Z,-5.30
2022-12-16T10:48:31.527Z,-5.20
2022-12-16T10:51:18.647Z,-5.20
2022-12-16T10:54:09.037Z,-5.20
2022-12-16T10:57:26.835Z,-5.00
2022-12-16T11:00:26.987Z,-4.90
2022-12-16T11:03:12.848Z,-4.90
2022-12-16T11:05:59.748Z,-4.80
2022-12-16T11:08:47.120Z,-4.70
2022-12-16T11:11:34.344Z,-4.60
2022-12-16T11:14:32.294Z,-4.60
2022-12-16T11:17:34.756Z,-4.50
2022-12-16T11:20:26.445Z,-4.30
2022-12-16T11:23:31.480Z,-4.20
2022-12-16T11:26:23.990Z,-3.90
2022-12-16T11:29:27.917Z,-3.60
2022-12-16T11:32:18.795Z,-3.30
2022-12-16T11:35:08.808Z,-3.00
2022-12-16T11:37:54.760Z,-2.70
2022-12-16T11:40:40.778Z,-2.50
2022-12-16T11:43:32.800Z,-2.40
2022-12-16T11:46:20.039Z,-2.00
2022-12-16T11:49:11.634Z,-1.50
2022-12-16T11:52:20.771Z,-1.20
2022-12-16T11:55:13.106Z,-1.00
2022-12-16T11:58:18.855Z,-0.90
2022-12-16T12:01:08.093Z,-0.80
2022-12-16T12:03:55.422Z,-0.70
2022-12-16T12:06:50.717Z,-0.60
2022-12-16T12:09:43.415Z,-0.60
2022-12-16T12:12:31.922Z,-0.40
2022-12-16T12:15:20.375Z,-0.30
2022-12-16T12:18:26.313Z,-0.10
2022-12-16T12:21:15.292Z,-0.10
2022-12-16T12:24:12.986Z,0.20
2022-12-16T12:27:05.324Z,0.10
2022-12-16T12:30:16.466Z,0.00
2022-12-16T12:33:05.470Z,-0.20
2022-12-16T12:36:10.088Z,-0.20
2022-12-16T12:38:58.491Z,-0.10
2022-12-16T12:41:47.491Z,0.20
2022-12-16T12:44:42.352Z,0.10
2022-12-16T12:47:34.411Z,0.30
2022-12-16T12:50:28.548Z,0.40
2022-12-16T12:53:13.966Z,0.40
2022-12-16T12:56:06.478Z,0.30
2022-12-16T12:58:54.099Z,0.50
2022-12-16T13:01:44.645Z,0.70
2022-12-16T13:04:35.708Z,0.70
2022-12-16T13:07:21.856Z,0.80
2022-12-16T13:10:27.080Z,0.70
2022-12-16T13:13:33.056Z,0.70
2022-12-16T13:16:19.570Z,0.80
2022-12-16T13:19:09.521Z,0.90
2022-12-16T13:21:56.337Z,0.90
2022-12-16T13:24:42.761Z,0.90
2022-12-16T13:27:35.260Z,0.80
2022-12-16T13:30:23.337Z,0.70
2022-12-16T13:33:41.208Z,0.60
2022-12-16T13:36:28.055Z,0.50
2022-12-16T13:39:14.795Z,0.30
2022-12-16T13:42:00.272Z,0.40
2022-12-16T13:45:01.556Z,0.20
2022-12-16T13:48:10.212Z,0.00
2022-12-16T13:50:57.431Z,0.00
2022-12-16T13:53:45.028Z,-0.10
2022-12-16T13:56:33.048Z,-0.10
2022-12-16T13:59:20.609Z,-0.20
2022-12-16T14:02:06.122Z,-0.30
2022-12-16T14:04:56.454Z,-0.30
2022-12-16T14:07:43.197Z,-0.40
2022-12-16T14:10:44.099Z,-0.40
2022-12-16T14:13:49.401Z,-0.40
2022-12-16T14:16:40.618Z,-0.60
2022-12-16T14:19:32.094Z,-0.60
2022-12-16T14:22:38.086Z,-0.70
2022-12-16T14:25:31.337Z,-0.70
2022-12-16T14:28:17.410Z,-0.80
2022-12-16T14:31:03.281Z,-0.80
2022-12-16T14:33:49.237Z,-0.90
2022-12-16T14:36:41.646Z,-1.10
2022-12-16T14:39:31.296Z,-1.20
2022-12-16T14:42:24.982Z,-1.40
2022-12-16T14:54:28.366Z,-2.00
2022-12-16T14:57:16.331Z,-2.10
2022-12-16T15:00:01.992Z,-2.10
2022-12-16T15:02:50.330Z,-2.20
2022-12-16T15:05:37.311Z,-2.40
2022-12-16T15:08:23.237Z,-2.40
2022-12-16T15:11:09.266Z,-2.50
2022-12-16T15:14:01.742Z,-2.70
2022-12-16T15:16:51.502Z,-2.70
2022-12-16T15:19:39.582Z,-2.90
2022-12-16T15:22:25.109Z,-3.00
2022-12-16T15:25:10.778Z,-3.00
2022-12-16T15:27:56.917Z,-3.10
2022-12-16T15:31:00.991Z,-3.20
2022-12-16T15:33:48.054Z,-3.30
2022-12-16T15:36:47.966Z,-3.30
2022-12-16T15:39:41.383Z,-3.50
2022-12-16T15:42:59.420Z,-3.60
2022-12-16T15:45:49.019Z,-3.70
2022-12-16T15:48:46.089Z,-3.80
2022-12-16T15:51:51.129Z,-3.80
2022-12-16T15:54:38.363Z,-3.90
2022-12-16T15:57:45.380Z,-4.00
2022-12-16T16:01:00.160Z,-4.00
2022-12-16T16:03:49.783Z,-4.00
2022-12-16T16:06:38.603Z,-4.20
2022-12-16T16:09:31.313Z,-4.20
2022-12-16T16:12:16.753Z,-4.30
2022-12-16T16:15:02.544Z,-4.30
2022-12-16T16:17:48.309Z,-4.30
2022-12-16T16:20:35.188Z,-4.30
2022-12-16T16:23:21.068Z,-4.30
2022-12-16T16:26:07.306Z,-4.20
2022-12-16T16:28:53.753Z,-4.30
2022-12-16T16:31:39.241Z,-4.20
2022-12-16T16:34:25.270Z,-4.30
2022-12-16T16:37:15.033Z,-4.30
2022-12-16T16:40:02.290Z,-4.30
2022-12-16T16:43:01.847Z,-4.40
2022-12-16T16:45:47.169Z,-4.40
2022-12-16T16:48:34.981Z,-4.40
2022-12-16T16:51:21.449Z,-4.40
2022-12-16T16:54:07.117Z,-4.50
2022-12-16T16:56:53.682Z,-4.50
2022-12-16T16:59:42.579Z,-4.50
2022-12-16T17:02:41.227Z,-4.50
2022-12-16T17:05:28.082Z,-4.50
2022-12-16T17:08:13.451Z,-4.60
2022-12-16T17:10:59.198Z,-4.60
2022-12-16T17:13:44.882Z,-4.60
2022-12-16T17:16:30.947Z,-4.70
2022-12-16T17:19:17.140Z,-4.70
2022-12-16T17:22:02.670Z,-4.70
2022-12-16T17:24:52.668Z,-4.70
2022-12-16T17:27:41.095Z,-4.70
2022-12-16T17:30:33.101Z,-4.70
2022-12-16T17:33:18.874Z,-4.70
2022-12-16T17:36:06.604Z,-4.70
2022-12-16T17:38:53.597Z,-4.70
2022-12-16T17:41:43.710Z,-4.70
2022-12-16T17:44:29.211Z,-4.80
2022-12-16T17:47:14.783Z,-4.80
2022-12-16T17:50:00.619Z,-4.80
2022-12-16T17:52:46.004Z,-4.90
2022-12-16T17:55:31.576Z,-4.90
2022-12-16T17:58:21.734Z,-5.00
2022-12-16T18:01:07.376Z,-5.00
2022-12-16T18:03:53.101Z,-4.90
2022-12-16T18:06:39.306Z,-4.90
2022-12-16T18:09:24.790Z,-4.90
2022-12-16T18:12:10.680Z,-5.00
2022-12-16T18:14:56.493Z,-5.00
2022-12-16T18:17:41.900Z,-5.00
2022-12-16T18:20:41.314Z,-5.00
2022-12-16T18:23:26.868Z,-5.00
2022-12-16T18:26:18.750Z,-5.00
2022-12-16T18:29:04.393Z,-4.90
2022-12-16T18:31:49.913Z,-4.80
2022-12-16T18:34:37.690Z,-4.80
2022-12-16T18:37:23.345Z,-4.80
2022-12-16T18:40:09.048Z,-4.80
2022-12-16T18:42:54.608Z,-4.70
2022-12-16T18:45:40.323Z,-4.70
2022-12-16T18:48:25.895Z,-4.60
2022-12-16T18:51:13.002Z,-4.60
2022-12-16T18:53:58.403Z,-4.50
2022-12-16T18:56:44.144Z,-4.50
2022-12-16T18:59:30.211Z,-4.50
2022-12-16T19:02:16.054Z,-4.40
2022-12-16T19:05:01.648Z,-4.40
2022-12-16T19:07:47.538Z,-4.40
2022-12-16T19:10:33.305Z,-4.40
2022-12-16T19:13:36.277Z,-4.30
2022-12-16T19:16:22.175Z,-4.30
2022-12-16T19:19:08.051Z,-4.30
2022-12-16T19:21:56.542Z,-4.20
2022-12-16T19:24:42.482Z,-4.20
2022-12-16T19:27:28.029Z,-4.20
2022-12-16T19:30:13.632Z,-4.20
2022-12-16T19:32:59.049Z,-4.20
2022-12-16T19:35:44.877Z,-4.30
2022-12-16T19:38:31.630Z,-4.30
2022-12-16T19:41:17.424Z,-4.30
2022-12-16T19:44:06.164Z,-4.30
2022-12-16T19:47:09.323Z,-4.20
2022-12-16T19:49:56.036Z,-4.20
2022-12-16T19:52:41.615Z,-4.20
2022-12-16T19:55:27.307Z,-4.20
2022-12-16T19:58:13.441Z,-4.20
2022-12-16T20:00:59.312Z,-4.20
2022-12-16T20:03:45.314Z,-4.20
2022-12-16T20:06:32.270Z,-4.30
2022-12-16T20:09:19.459Z,-4.40
2022-12-16T20:12:05.202Z,-4.60
2022-12-16T20:14:51.688Z,-4.50
2022-12-16T20:17:37.625Z,-4.50
2022-12-16T20:20:23.620Z,-4.50
2022-12-16T20:23:10.811Z,-4.50
2022-12-16T20:25:57.354Z,-4.40
2022-12-16T20:28:42.812Z,-4.40
2022-12-16T20:31:28.131Z,-4.40
2022-12-16T20:34:14.203Z,-4.40
2022-12-16T20:36:59.794Z,-4.40
2022-12-16T20:42:51.522Z,-4.50
2022-12-16T20:45:38.752Z,-4.50
2022-12-16T20:48:24.395Z,-4.60
2022-12-16T20:51:14.395Z,-4.60
2022-12-16T20:54:00.608Z,-4.60
2022-12-16T20:57:12.386Z,-4.60
2022-12-16T20:59:58.489Z,-4.60
2022-12-16T21:02:44.423Z,-4.70
2022-12-16T21:05:30.440Z,-4.70
2022-12-16T21:08:15.793Z,-4.70
2022-12-16T21:11:08.764Z,-4.80
2022-12-16T21:13:56.691Z,-4.70
2022-12-16T21:16:42.705Z,-4.80
2022-12-16T21:22:33.647Z,-4.80
2022-12-16T21:25:24.328Z,-4.80
2022-12-16T21:28:14.421Z,-4.70
2022-12-16T21:31:00.135Z,-4.70
2022-12-16T21:33:45.970Z,-4.70
2022-12-16T21:36:31.806Z,-4.60
2022-12-16T21:39:17.160Z,-4.50
2022-12-16T21:42:03.087Z,-4.50
2022-12-16T21:44:48.564Z,-4.50
2022-12-16T21:47:34.314Z,-4.40
2022-12-16T21:50:20.659Z,-4.40
2022-12-16T21:53:06.474Z,-4.40
2022-12-16T21:55:52.277Z,-4.50
2022-12-16T21:58:37.942Z,-4.50
2022-12-16T22:01:23.498Z,-4.60
2022-12-16T22:04:09.503Z,-4.60
2022-12-16T22:06:55.237Z,-4.60
2022-12-16T22:09:41.853Z,-4.60
2022-12-16T22:12:27.196Z,-4.50
2022-12-16T22:15:12.885Z,-4.50
2022-12-16T22:21:03.848Z,-4.50
2022-12-16T22:23:49.915Z,-4.50
2022-12-16T22:26:35.376Z,-4.50
2022-12-16T22:29:21.190Z,-4.60
2022-12-16T22:32:07.043Z,-4.50
2022-12-16T22:34:55.579Z,-4.50
2022-12-16T22:37:41.210Z,-4.50
2022-12-16T22:40:27.276Z,-4.60
2022-12-16T22:43:13.025Z,-4.60
2022-12-16T22:45:58.790Z,-4.60
2022-12-16T22:48:44.932Z,-4.60
2022-12-16T22:51:31.142Z,-4.60
2022-12-16T22:54:16.712Z,-4.50
2022-12-16T22:57:02.489Z,-4.50
2022-12-16T22:59:47.986Z,-4.50
2022-12-16T23:02:33.842Z,-4.50
2022-12-16T23:05:25.363Z,-4.50
2022-12-16T23:08:12.914Z,-4.50
2022-12-16T23:10:58.564Z,-4.40
2022-12-16T23:13:45.722Z,-4.40
2022-12-16T23:16:31.697Z,-4.40
2022-12-16T23:19:17.750Z,-4.40
2022-12-16T23:22:03.153Z,-4.50
2022-12-16T23:24:48.509Z,-4.50
2022-12-16T23:27:33.882Z,-4.50
2022-12-16T23:30:20.176Z,-4.40
2022-12-16T23:33:05.668Z,-4.50
2022-12-16T23:35:51.987Z,-4.40
2022-12-16T23:38:37.584Z,-4.60
2022-12-16T23:41:23.275Z,-4.50
2022-12-16T23:44:08.877Z,-4.50
2022-12-16T23:46:56.456Z,-4.50
2022-12-16T23:49:42.076Z,-4.50
2022-12-16T23:52:27.793Z,-4.50
2022-12-16T23:55:13.322Z,-4.60
2022-12-16T23:58:19.022Z,-4.60
